Latest Coastal Weather Observations for Arlington Reef

IDQ60701

Issued at 4:51 am EST Saturday 22 July 2017 (issued every 10 minutes, with the page automatically refreshed every 10 minutes)

About coastal observations | Map of coastal stations | Coastal observations for QLD | Marine services | Other Formats
Station Details ID: 200879 Name: ARLINGTON REEF Lat: -16.72 Lon: 146.11 Height: 0.0 m
Data from the previous 72 hours. | See also: Recent months at Arlington Reef
Date/Time
EST
Temp
°C
Wind Pressure Rain since
9am
mm
Weather Cloud Vis
km
Sea
Height
m
Swell
Dir  Spd
kts
Gust
kts
hPa Trend Height
m
Period
s
Dir
22/04:30am - S 16 19 1016.3 - - - - - - - - -
22/04:00am - S 16 18 1016.2 - - - - - - - - -
22/03:30am - S 16 19 1016.1 - - - - - - - - -
22/03:00am - S 14 17 1016.3 - - - - - - - - -
22/02:30am - S 16 18 1016.3 - - - - - - - - -
22/02:00am - S 13 16 1016.5 - - - - - - - - -
22/01:30am - S 14 16 1016.7 - - - - - - - - -
22/01:00am - SSE 13 15 1016.9 - - - - - - - - -
22/12:30am - SSE 13 15 1017.1 - - - - - - - - -
22/12:00am - SSE 13 15 1017.4 - - - - - - - - -
 
Date/Time
EST
Temp
°C
Wind Pressure Rain since
9am
mm
Weather Cloud Vis
km
Sea
Height
m
Swell
Dir  Spd
kts
Gust
kts
hPa Trend Height
m
Period
s
Dir
21/11:30pm - SSE 12 14 1017.5 - - - - - - - - -
21/11:00pm - SSE 13 17 1017.6 - - - - - - - - -
21/10:30pm - SSE 13 15 1017.9 - - - - - - - - -
21/10:00pm - SSE 13 17 1017.9 - - - - - - - - -
21/09:30pm - SSE 13 15 1018.0 - - - - - - - - -
21/09:00pm - SSE 13 17 1017.9 - - - - - - - - -
21/08:30pm - SSE 14 17 1017.7 - - - - - - - - -
21/08:00pm - SSE 14 17 1017.5 - - - - - - - - -
21/07:30pm - SSE 15 17 1017.0 - - - - - - - - -
21/07:00pm - SSE 14 17 1016.6 - - - - - - - - -
21/06:30pm - SSE 14 17 1016.3 - - - - - - - - -
21/06:00pm - SSE 13 17 1016.1 - - - - - - - - -
21/05:30pm - SSE 13 18 1016.0 - - - - - - - - -
21/05:00pm - SSE 13 16 1015.8 - - - - - - - - -
21/04:30pm - SSE 13 16 1015.3 - - - - - - - - -
21/04:00pm - SSE 14 17 1015.1 - - - - - - - - -
21/03:30pm - SSE 14 16 1014.9 - - - - - - - - -
21/03:00pm - SSE 14 16 1015.0 - - - - - - - - -
21/02:30pm - SSE 15 18 1015.3 - - - - - - - - -
21/02:00pm - SSE 15 18 1015.7 - - - - - - - - -
21/01:30pm - SSE 15 17 1016.0 - - - - - - - - -
21/01:00pm - SSE 13 16 1016.4 - - - - - - - - -
21/12:30pm - SSE 13 16 1016.8 - - - - - - - - -
21/12:00pm - SSE 13 16 1017.1 - - - - - - - - -
21/11:30am - SE 13 16 1017.4 - - - - - - - - -
21/11:00am - SE 13 16 1017.7 - - - - - - - - -
21/10:30am - SE 12 15 1017.7 - - - - - - - - -
21/10:00am - SSE 12 14 1017.8 - - - - - - - - -
21/09:30am - SSE 14 16 1017.6 - - - - - - - - -
21/09:00am - SE 12 14 1017.4 - - - - - - - - -
21/08:30am - SE 13 15 1017.3 - - - - - - - - -
21/08:00am - SE 12 14 1017.0 - - - - - - - - -
21/07:30am - SE 13 15 1016.5 - - - - - - - - -
21/07:00am - SE 14 17 1016.3 - - - - - - - - -
21/06:30am - SE 14 16 1015.9 - - - - - - - - -
21/06:00am - SE 13 15 1015.6 - - - - - - - - -
21/05:30am - SE 14 16 1015.3 - - - - - - - - -
21/05:00am - SE 15 18 1015.2 - - - - - - - - -
21/04:30am - SE 15 17 1014.8 - - - - - - - - -
21/04:00am - SE 15 17 1014.8 - - - - - - - - -
21/03:30am - SSE 13 16 1015.0 - - - - - - - - -
21/03:00am - SE 15 17 1015.0 - - - - - - - - -
21/02:30am - SE 14 16 1015.1 - - - - - - - - -
21/02:00am - SE 13 15 1015.2 - - - - - - - - -
21/01:30am - SE 14 16 1015.4 - - - - - - - - -
21/01:00am - SE 14 16 1015.8 - - - - - - - - -
21/12:30am - SE 13 15 1016.0 - - - - - - - - -
21/12:00am - SSE 13 17 1016.2 - - - - - - - - -
 
Date/Time
EST
Temp
°C
Wind Pressure Rain since
9am
mm
Weather Cloud Vis
km
Sea
Height
m
Swell
Dir  Spd
kts
Gust
kts
hPa Trend Height
m
Period
s
Dir
20/11:30pm - S 15 20 1016.3 - - - - - - - - -
20/11:00pm - S 15 17 1016.5 - - - - - - - - -
20/10:30pm - S 16 19 1016.6 - - - - - - - - -
20/10:00pm - S 16 19 1016.7 - - - - - - - - -
20/09:30pm - S 17 19 1016.6 - - - - - - - - -
20/09:00pm - S 16 19 1016.7 - - - - - - - - -
20/08:30pm - S 17 20 1016.5 - - - - - - - - -
20/08:00pm - S 17 20 1016.3 - - - - - - - - -
20/07:30pm - S 18 20 1016.0 - - - - - - - - -
20/07:00pm - S 18 22 1015.6 - - - - - - - - -
20/06:30pm - SSE 19 22 1015.3 - - - - - - - - -
20/06:00pm - SSE 19 23 1014.9 - - - - - - - - -
20/05:30pm - SSE 20 23 1014.7 - - - - - - - - -
20/05:00pm - SSE 21 25 1014.1 - - - - - - - - -
20/04:30pm - S 22 26 1014.1 - - - - - - - - -
20/04:00pm - SSE 22 26 1014.2 - - - - - - - - -
20/03:30pm - SSE 22 26 1014.0 - - - - - - - - -
20/03:00pm - SSE 22 25 1014.4 - - - - - - - - -
20/02:30pm - S 22 26 1014.2 - - - - - - - - -
20/02:00pm - S 24 28 1014.2 - - - - - - - - -
20/01:30pm - SSE 23 28 1014.7 - - - - - - - - -
20/01:00pm - SSE 23 28 1015.3 - - - - - - - - -
20/12:30pm - S 24 29 1015.5 - - - - - - - - -
20/12:00pm - SSE 23 28 1015.7 - - - - - - - - -
20/11:30am - SSE 23 26 1016.2 - - - - - - - - -
20/11:00am - SSE 22 27 1016.7 - - - - - - - - -
20/10:30am - SSE 24 29 1016.7 - - - - - - - - -
20/10:00am - SSE 25 29 1016.6 - - - - - - - - -
20/09:30am - SSE 24 28 1016.4 - - - - - - - - -
20/09:00am - SSE 24 29 1016.4 - - - - - - - - -
20/08:30am - SSE 24 30 1015.9 - - - - - - - - -
20/08:00am - SSE 26 31 1015.5 - - - - - - - - -
20/07:30am - SSE 25 29 1015.1 - - - - - - - - -
20/07:00am - SSE 25 29 1015.0 - - - - - - - - -
20/06:30am - SSE 22 27 1014.8 - - - - - - - - -
20/06:00am - SSE 21 25 1014.5 - - - - - - - - -
20/05:30am - S 20 23 1014.3 - - - - - - - - -
20/05:00am - S 19 23 1014.2 - - - - - - - - -
20/04:30am - S 18 21 1014.1 - - - - - - - - -
20/04:00am - SSE 16 19 1014.1 - - - - - - - - -
20/03:30am - SSE 15 17 1014.1 - - - - - - - - -
20/03:00am - SSE 14 16 1014.3 - - - - - - - - -
20/02:30am - SSE 14 16 1014.4 - - - - - - - - -
20/02:00am - SSE 13 16 1014.6 - - - - - - - - -
20/01:30am - SSE 12 14 1014.8 - - - - - - - - -
20/01:00am - SSE 11 13 1015.1 - - - - - - - - -
20/12:30am - SSE 11 13 1015.3 - - - - - - - - -
20/12:00am - SSE 11 13 1015.5 - - - - - - - - -
 
Date/Time
EST
Temp
°C
Wind Pressure Rain since
9am
mm
Weather Cloud Vis
km
Sea
Height
m
Swell
Dir  Spd
kts
Gust
kts
hPa Trend Height
m
Period
s
Dir
19/11:30pm - SSE 10 12 1015.7 - - - - - - - - -
19/11:00pm - SSE 10 11 1015.9 - - - - - - - - -
19/10:30pm - SSE 10 11 1016.1 - - - - - - - - -
19/10:00pm - SSE 10 12 1016.0 - - - - - - - - -
19/09:30pm - SSE 10 12 1015.9 - - - - - - - - -
19/09:00pm - SSE 10 12 1015.6 - - - - - - - - -
19/08:30pm - SSE 12 13 1015.2 - - - - - - - - -
19/08:00pm - SSE 12 13 1014.6 - - - - - - - - -
19/07:30pm - SSE 11 13 1014.4 - - - - - - - - -
19/07:00pm - SSE 11 14 1014.2 - - - - - - - - -
19/06:30pm - SSE 12 14 1014.0 - - - - - - - - -
19/06:00pm - SSE 12 14 1013.7 - - - - - - - - -
19/05:30pm - SSE 13 15 1013.4 - - - - - - - - -
19/05:00pm - SSE 13 15 1013.2 - - - - - - - - -
19/04:30pm - SSE 14 16 1013.1 - - - - - - - - -
19/04:00pm - SSE 13 15 1013.1 - - - - - - - - -
19/03:30pm - SSE 12 14 1013.2 - - - - - - - - -
19/03:00pm - SSE 14 16 1013.2 - - - - - - - - -
19/02:30pm - SSE 14 16 1013.3 - - - - - - - - -
19/02:00pm - SSE 14 16 1013.6 - - - - - - - - -
19/01:30pm - SSE 14 17 1013.9 - - - - - - - - -
19/01:00pm - SSE 14 17 1014.5 - - - - - - - - -
19/12:30pm - SSE 12 15 1015.0 - - - - - - - - -
19/12:00pm - S 14 16 1015.2 - - - - - - - - -
19/11:30am - S 14 17 1015.5 - - - - - - - - -
19/11:00am - S 15 18 1015.7 - - - - - - - - -
19/10:30am - S 15 17 1016.0 - - - - - - - - -
19/10:00am - S 15 17 1016.3 - - - - - - - - -
19/09:30am - S 15 17 1016.5 - - - - - - - - -
19/09:00am - S 15 18 1016.7 - - - - - - - - -
19/08:30am - SSE 15 18 1016.6 - - - - - - - - -
19/08:00am - SSE 16 19 1016.4 - - - - - - - - -
19/07:30am - SSE 16 19 1016.1 - - - - - - - - -
19/07:00am - SSE 16 19 1015.9 - - - - - - - - -
19/06:30am - SSE 17 19 1015.6 - - - - - - - - -
19/06:00am - S 17 19 1015.3 - - - - - - - - -
19/05:30am - S 16 19 1015.1 - - - - - - - - -
19/05:00am - S 16 18 1015.0 - - - - - - - - -

Other Formats:

Comma delimited format used in spreadsheet applications
http://www.bom.gov.au/fwo/IDQ60701/IDQ60701.94284.axf

JavaScript Object Notation format (JSON) in row-major order
http://www.bom.gov.au/fwo/IDQ60701/IDQ60701.94284.json